Time;durP1;ratioP1;P1;durP2;ratioP2;P2;SDS_P1;SDS_P2;PMS_P1;PMS_P2;Temp;Humidity;BMP_temperature;BMP_pressure;BME280_temperature;BME280_humidity;BME280_pressure;Samples;Min_cycle;Max_cycle;Signal;HPM_P1;HPM_P2
2023/10/25 00:02:04;;;;;;;;;;;;;;;7.80;100.00;100133.94;5068999;28;19923;-67
2023/10/25 00:04:29;;;;;;;;;;;;;;;7.77;100.00;100139.19;5081058;28;20029;-67
2023/10/25 00:06:55;;;;;;;;;;;;;;;7.66;100.00;100135.84;5048513;28;20411;-67
2023/10/25 00:09:20;;;;;;;;;;;;;;;7.66;100.00;100131.50;5068543;28;19923;-67
2023/10/25 00:11:46;;;;;;;;;;;;;;;7.57;100.00;100132.47;5053307;28;19924;-67
2023/10/25 00:14:11;;;;;;;;;;;;;;;7.57;100.00;100127.25;5052379;28;20368;-67
2023/10/25 00:16:37;;;;;;;;;;;;;;;7.63;100.00;100123.72;5052413;28;19970;-67
2023/10/25 00:19:04;;;;;;;;;;;;;;;7.75;100.00;100131.41;5053459;28;20363;-68
2023/10/25 00:21:29;;;;;;;;;;;;;;;7.73;100.00;100127.97;5058697;28;20161;-67
2023/10/25 00:23:55;;;;;;;;;;;;;;;7.68;100.00;100123.66;5082684;28;19927;-67
2023/10/25 00:26:22;;;;;;;;;;;;;;;7.63;100.00;100118.50;5073898;28;19924;-67
2023/10/25 00:28:48;;;;;;;;;;;;;;;7.65;100.00;100113.28;5068145;28;20030;-67
2023/10/25 00:31:13;;;;;;;;;;;;;;;7.65;100.00;100114.13;5053952;28;19952;-68
2023/10/25 00:33:41;;;;;;;;;;;;;;;7.58;100.00;100108.09;5058363;28;20394;-67
2023/10/25 00:36:06;;;;;;;;;;;;;;;7.63;100.00;100108.94;5070976;28;19973;-67
2023/10/25 00:38:32;;;;;;;;;;;;;;;7.56;100.00;100116.84;5057320;28;19925;-67
2023/10/25 00:40:57;;;;;;;;;;;;;;;7.53;100.00;100115.13;5054486;28;20392;-67
2023/10/25 00:43:24;;;;;;;;;;;;;;;7.51;100.00;100116.88;5049183;28;20000;-67
2023/10/25 00:46:08;;;;;;;;;;;;;;;7.50;100.00;100119.50;5054136;28;19933;-67
2023/10/25 00:48:33;;;;;;;;;;;;;;;7.59;100.00;100125.50;5061725;28;19936;-67
2023/10/25 00:51:00;;;;;;;;;;;;;;;7.51;100.00;100116.88;5067039;28;19916;-67
2023/10/25 00:53:26;;;;;;;;;;;;;;;7.58;100.00;100108.09;5067979;28;20391;-67
2023/10/25 00:55:55;;;;;;;;;;;;;;;7.55;100.00;100117.72;5069412;28;19926;-67
2023/10/25 00:58:22;;;;;;;;;;;;;;;7.57;100.00;100121.16;5064489;28;20364;-67
2023/10/25 01:00:48;;;;;;;;;;;;;;;7.58;100.00;100121.16;5073220;28;19998;-67
2023/10/25 01:03:15;;;;;;;;;;;;;;;7.74;100.00;100115.75;5059591;28;19919;-68
2023/10/25 01:05:41;;;;;;;;;;;;;;;7.59;100.00;100117.66;5085109;28;19921;-67
2023/10/25 01:08:06;;;;;;;;;;;;;;;7.60;100.00;100102.88;5052426;28;19944;-67
2023/10/25 01:10:31;;;;;;;;;;;;;;;7.57;100.00;100101.19;5055252;28;19924;-67
2023/10/25 01:12:57;;;;;;;;;;;;;;;7.52;100.00;100099.50;5078437;28;20493;-67
2023/10/25 01:15:23;;;;;;;;;;;;;;;7.46;100.00;100103.91;5043494;28;20019;-67
2023/10/25 01:17:48;;;;;;;;;;;;;;;7.43;100.00;100097.88;5077232;28;20009;-67
2023/10/25 01:20:14;;;;;;;;;;;;;;;7.41;100.00;100089.19;5055220;28;20277;-67
2023/10/25 01:22:39;;;;;;;;;;;;;;;7.42;100.00;100096.13;5060589;28;19916;-67
2023/10/25 01:25:05;;;;;;;;;;;;;;;7.39;100.00;100091.81;5054999;28;19951;-68
2023/10/25 01:27:30;;;;;;;;;;;;;;;7.45;100.00;100085.69;5051944;28;19928;-67
2023/10/25 01:29:55;;;;;;;;;;;;;;;7.38;100.00;100095.28;5061559;28;20396;-67
2023/10/25 01:32:21;;;;;;;;;;;;;;;7.40;100.00;100090.09;5071435;28;19930;-67
2023/10/25 01:34:46;;;;;;;;;;;;;;;7.39;100.00;100072.72;5054403;28;19921;-67
2023/10/25 01:37:13;;;;;;;;;;;;;;;7.43;100.00;100079.63;5055520;28;19973;-67
2023/10/25 01:39:38;;;;;;;;;;;;;;;7.40;100.00;100071.84;5056929;28;20273;-67
2023/10/25 01:42:06;;;;;;;;;;;;;;;7.35;100.00;100069.25;5071427;28;19978;-67
2023/10/25 01:44:32;;;;;;;;;;;;;;;7.36;100.00;100072.75;5066616;28;19993;-67
2023/10/25 01:46:57;;;;;;;;;;;;;;;7.25;100.00;100070.25;5050585;28;20379;-67
2023/10/25 01:49:22;;;;;;;;;;;;;;;7.45;100.00;100051.78;5070800;28;19920;-67
2023/10/25 01:51:48;;;;;;;;;;;;;;;7.40;100.00;100053.59;5070643;28;19917;-67
2023/10/25 01:54:14;;;;;;;;;;;;;;;7.29;100.00;100056.31;5056275;28;20242;-67
2023/10/25 01:56:39;;;;;;;;;;;;;;;7.35;100.00;100043.19;5063779;28;20030;-67
2023/10/25 01:59:05;;;;;;;;;;;;;;;7.30;100.00;100042.41;5073876;28;20014;-67
2023/10/25 02:01:30;;;;;;;;;;;;;;;7.25;100.00;100047.66;5071845;28;19928;-67
2023/10/25 02:03:55;;;;;;;;;;;;;;;7.23;100.00;100054.63;5058794;28;19971;-68
2023/10/25 02:06:21;;;;;;;;;;;;;;;7.25;100.00;100041.59;5047690;28;19921;-67
2023/10/25 02:08:46;;;;;;;;;;;;;;;7.33;100.00;100033.69;5072696;28;19920;-67
2023/10/25 02:11:12;;;;;;;;;;;;;;;7.29;100.00;100025.88;5054429;28;19920;-67
2023/10/25 02:13:37;;;;;;;;;;;;;;;7.13;100.00;100031.31;5078448;28;19920;-67
2023/10/25 02:16:15;;;;;;;;;;;;;;;7.16;100.00;100021.72;5071236;28;19924;-67
2023/10/25 02:18:41;;;;;;;;;;;;;;;7.21;100.00;100012.09;5054328;28;19926;-67
2023/10/25 02:21:06;;;;;;;;;;;;;;;7.15;100.00;100025.19;5053644;28;20344;-67
2023/10/25 02:23:33;;;;;;;;;;;;;;;7.19;100.00;100020.81;5053994;28;22072;-67
2023/10/25 02:25:59;;;;;;;;;;;;;;;7.18;100.00;100019.09;5053542;28;20305;-67
2023/10/25 02:28:24;;;;;;;;;;;;;;;7.26;100.00;100023.31;5050898;28;19966;-67
2023/10/25 02:30:49;;;;;;;;;;;;;;;7.29;100.00;100025.88;5042084;28;19978;-66
2023/10/25 02:33:14;;;;;;;;;;;;;;;7.38;100.00;100009.28;5054131;28;19924;-67
2023/10/25 02:35:40;;;;;;;;;;;;;;;7.38;100.00;100005.81;5050979;28;20443;-66
2023/10/25 02:38:05;;;;;;;;;;;;;;;7.38;100.00;100018.84;5053451;28;19924;-66
2023/10/25 02:40:30;;;;;;;;;;;;;;;7.33;100.00;100005.88;5050640;28;19927;-66
2023/10/25 02:42:56;;;;;;;;;;;;;;;7.37;100.00;100010.19;5070995;28;19921;-67
2023/10/25 02:45:21;;;;;;;;;;;;;;;7.38;100.00;100008.44;5068387;28;19965;-67
2023/10/25 02:47:46;;;;;;;;;;;;;;;7.41;100.00;100000.56;5051678;28;20027;-67
2023/10/25 02:50:12;;;;;;;;;;;;;;;7.39;100.00;100004.94;5056094;28;20365;-67
2023/10/25 02:52:37;;;;;;;;;;;;;;;7.32;100.00;99993.72;5068559;28;19924;-67
2023/10/25 02:55:02;;;;;;;;;;;;;;;7.36;100.00;99986.75;5086279;28;19916;-67
2023/10/25 02:57:28;;;;;;;;;;;;;;;7.31;100.00;99975.50;5076169;28;20344;-67
2023/10/25 02:59:53;;;;;;;;;;;;;;;7.32;100.00;99985.91;5072371;28;20016;-67
2023/10/25 03:02:19;;;;;;;;;;;;;;;7.42;100.00;99976.22;5072428;28;20368;-67
2023/10/25 03:04:44;;;;;;;;;;;;;;;7.29;100.00;99975.53;5074928;28;20316;-67
2023/10/25 03:07:09;;;;;;;;;;;;;;;7.24;100.00;99966.88;5053551;28;20396;-67
2023/10/25 03:09:35;;;;;;;;;;;;;;;7.24;100.00;99965.16;5068921;28;19932;-67
2023/10/25 03:12:00;;;;;;;;;;;;;;;7.25;100.00;99956.44;5079596;28;19924;-67
2023/10/25 03:14:25;;;;;;;;;;;;;;;7.21;100.00;99964.31;5068537;28;20011;-67
2023/10/25 03:16:51;;;;;;;;;;;;;;;7.22;100.00;99968.66;5048525;28;19931;-67
2023/10/25 03:19:16;;;;;;;;;;;;;;;7.14;100.00;99950.53;5058432;28;19999;-67
2023/10/25 03:21:42;;;;;;;;;;;;;;;7.15;100.00;99940.94;5049937;28;20404;-67
2023/10/25 03:24:07;;;;;;;;;;;;;;;7.16;100.00;99938.31;5074441;28;19927;-67
2023/10/25 03:26:33;;;;;;;;;;;;;;;7.15;100.00;99949.63;5050310;28;20296;-67
2023/10/25 03:28:58;;;;;;;;;;;;;;;7.15;100.00;99936.59;5070949;28;19959;-67
2023/10/25 03:31:23;;;;;;;;;;;;;;;7.18;100.00;99940.91;5051838;28;20032;-67
2023/10/25 03:33:49;;;;;;;;;;;;;;;7.19;100.00;99943.50;5070268;28;20299;-67
2023/10/25 03:36:14;;;;;;;;;;;;;;;7.22;100.00;99940.84;5068524;28;20026;-67
2023/10/25 03:38:40;;;;;;;;;;;;;;;7.22;100.00;99930.41;5055855;28;19924;-67
2023/10/25 03:41:06;;;;;;;;;;;;;;;7.24;100.00;99935.63;5054567;28;20387;-67
2023/10/25 03:43:33;;;;;;;;;;;;;;;7.25;100.00;99932.13;5070881;28;20379;-67
2023/10/25 03:46:05;;;;;;;;;;;;;;;7.24;100.00;99933.88;5046426;28;21424;-67
2023/10/25 03:48:31;;;;;;;;;;;;;;;7.26;100.00;99936.47;5038693;28;19979;-67
2023/10/25 03:50:57;;;;;;;;;;;;;;;7.28;100.00;99938.19;5069714;28;19947;-67
2023/10/25 03:53:22;;;;;;;;;;;;;;;7.29;100.00;99924.25;5051793;28;20355;-67
2023/10/25 03:55:56;;;;;;;;;;;;;;;7.30;100.00;99919.91;5055215;28;20009;-67
2023/10/25 03:58:22;;;;;;;;;;;;;;;7.29;100.00;99921.66;5068582;28;19962;-67
2023/10/25 04:00:48;;;;;;;;;;;;;;;7.31;100.00;99919.00;5066673;28;20387;-67
2023/10/25 04:03:13;;;;;;;;;;;;;;;7.32;100.00;99922.50;5069201;28;19928;-66
2023/10/25 04:05:39;;;;;;;;;;;;;;;7.38;100.00;99914.59;5048173;28;19924;-67
2023/10/25 04:08:04;;;;;;;;;;;;;;;7.37;100.00;99920.69;5065808;28;20014;-67
2023/10/25 04:10:30;;;;;;;;;;;;;;;7.37;100.00;99915.47;5049195;28;20051;-67
2023/10/25 04:12:55;;;;;;;;;;;;;;;7.41;100.00;99914.53;5041887;28;19955;-67
2023/10/25 04:15:21;;;;;;;;;;;;;;;7.41;100.00;99914.53;5060929;28;19920;-67
2023/10/25 04:17:46;;;;;;;;;;;;;;;7.40;100.00;99910.25;5054720;28;19920;-66
2023/10/25 04:20:11;;;;;;;;;;;;;;;7.49;100.00;99904.88;5053110;28;19934;-67
2023/10/25 04:22:37;;;;;;;;;;;;;;;7.45;100.00;99905.81;5049341;28;19924;-67
2023/10/25 04:25:03;;;;;;;;;;;;;;;7.46;100.00;99900.56;5075323;28;20004;-67
2023/10/25 04:27:28;;;;;;;;;;;;;;;7.51;100.00;99908.31;5083201;28;19932;-66
2023/10/25 04:29:54;;;;;;;;;;;;;;;7.53;100.00;99900.47;5083454;28;19952;-67
2023/10/25 04:32:19;;;;;;;;;;;;;;;7.67;100.00;99913.31;5055376;28;19928;-67
2023/10/25 04:34:44;;;;;;;;;;;;;;;7.66;100.00;99911.59;5073795;28;19947;-67
2023/10/25 04:37:10;;;;;;;;;;;;;;;7.66;100.00;99904.66;5054964;28;20418;-67
2023/10/25 04:39:35;;;;;;;;;;;;;;;7.71;100.00;99899.34;5071954;28;20326;-67
2023/10/25 04:42:00;;;;;;;;;;;;;;;7.77;100.00;99904.47;5057706;28;19920;-67
2023/10/25 04:44:27;;;;;;;;;;;;;;;7.74;100.00;99909.75;5063385;28;20011;-67
2023/10/25 04:46:52;;;;;;;;;;;;;;;7.79;100.00;99902.72;5073302;28;19928;-67
2023/10/25 04:49:20;;;;;;;;;;;;;;;7.78;100.00;99895.78;5070759;28;19928;-67
2023/10/25 04:51:45;;;;;;;;;;;;;;;7.80;100.00;99884.44;5055515;28;19932;-67
2023/10/25 04:54:11;;;;;;;;;;;;;;;7.80;100.00;99884.44;5051658;28;20265;-67
2023/10/25 04:56:36;;;;;;;;;;;;;;;7.81;100.00;99874.84;5067838;28;20014;-67
2023/10/25 04:59:02;;;;;;;;;;;;;;;7.85;100.00;99879.13;5056212;28;19927;-66
2023/10/25 05:01:27;;;;;;;;;;;;;;;7.85;100.00;99884.34;5072087;28;19947;-66
2023/10/25 05:03:52;;;;;;;;;;;;;;;7.87;100.00;99868.69;5063051;28;19966;-67
2023/10/25 05:06:20;;;;;;;;;;;;;;;7.88;100.00;99871.25;5071186;28;19959;-67
2023/10/25 05:08:46;;;;;;;;;;;;;;;7.97;100.00;99868.50;5060006;28;19982;-66
2023/10/25 05:11:13;;;;;;;;;;;;;;;7.90;100.00;99859.06;5050456;28;20009;-67
2023/10/25 05:13:39;;;;;;;;;;;;;;;7.90;100.00;99848.63;5079734;28;19917;-67
2023/10/25 05:16:04;;;;;;;;;;;;;;;7.89;100.00;99849.50;5073758;28;19931;-67
2023/10/25 05:18:30;;;;;;;;;;;;;;;7.89;100.00;99840.84;5065769;28;20054;-67
2023/10/25 05:21:01;;;;;;;;;;;;;;;7.91;100.00;99845.13;5066839;28;20015;-67
2023/10/25 05:23:28;;;;;;;;;;;;;;;7.90;100.00;99843.41;5071475;28;19982;-67
2023/10/25 05:25:53;;;;;;;;;;;;;;;7.90;100.00;99837.31;5054576;28;19935;-67
2023/10/25 05:28:19;;;;;;;;;;;;;;;7.88;100.00;99824.31;5071284;28;19916;-67
2023/10/25 05:30:44;;;;;;;;;;;;;;;7.89;100.00;99828.66;5091172;28;19961;-67
2023/10/25 05:33:11;;;;;;;;;;;;;;;7.89;100.00;99831.25;5067590;28;19927;-66
2023/10/25 05:35:36;;;;;;;;;;;;;;;7.88;100.00;99826.91;5082937;28;19959;-67
2023/10/25 05:38:04;;;;;;;;;;;;;;;7.87;100.00;99830.41;5081414;28;19959;-67
2023/10/25 05:40:29;;;;;;;;;;;;;;;7.90;100.00;99821.66;5055636;28;19927;-66
2023/10/25 05:42:57;;;;;;;;;;;;;;;7.87;100.00;99819.97;5052511;28;19928;-67
2023/10/25 05:45:22;;;;;;;;;;;;;;;7.95;100.00;99812.88;5083247;28;19963;-66
2023/10/25 05:47:47;;;;;;;;;;;;;;;7.91;100.00;99810.34;5072315;28;19921;-68
2023/10/25 05:50:13;;;;;;;;;;;;;;;7.97;100.00;99805.91;5068577;28;20033;-67
2023/10/25 05:52:44;;;;;;;;;;;;;;;8.02;100.00;99804.97;5060637;28;19955;-67
2023/10/25 05:55:10;;;;;;;;;;;;;;;7.99;100.00;99813.69;5048660;28;19920;-67
2023/10/25 05:57:35;;;;;;;;;;;;;;;8.01;100.00;99811.06;5052100;28;19973;-68
2023/10/25 06:00:01;;;;;;;;;;;;;;;8.03;100.00;99804.06;5068928;28;20265;-68
2023/10/25 06:02:27;;;;;;;;;;;;;;;8.13;100.00;99797.78;5052404;28;19928;-68
2023/10/25 06:04:56;;;;;;;;;;;;;;;8.05;100.00;99797.06;5071891;28;19917;-67
2023/10/25 06:07:22;;;;;;;;;;;;;;;8.06;100.00;99796.16;5068204;28;19924;-67
2023/10/25 06:09:47;;;;;;;;;;;;;;;8.19;100.00;99795.06;5067677;28;19981;-67
2023/10/25 06:12:13;;;;;;;;;;;;;;;8.09;100.00;99783.94;5045371;28;20261;-68
2023/10/25 06:14:38;;;;;;;;;;;;;;;8.17;100.00;99794.22;5084244;28;19920;-68
2023/10/25 06:17:04;;;;;;;;;;;;;;;8.33;100.00;99786.97;5069724;28;20333;-68
2023/10/25 06:19:29;;;;;;;;;;;;;;;8.24;100.00;99789.75;5068787;28;19929;-68
2023/10/25 06:21:55;;;;;;;;;;;;;;;8.27;100.00;99790.53;5068672;28;19920;-69
2023/10/25 06:24:20;;;;;;;;;;;;;;;8.36;100.00;99789.53;5076258;28;19927;-68
2023/10/25 06:26:46;;;;;;;;;;;;;;;8.36;100.00;99788.66;5058896;28;19935;-68
2023/10/25 06:29:11;;;;;;;;;;;;;;;8.30;100.00;99779.19;5075079;28;19917;-68
2023/10/25 06:31:36;;;;;;;;;;;;;;;8.30;100.00;99784.41;5072352;28;19924;-68
2023/10/25 06:34:02;;;;;;;;;;;;;;;8.32;100.00;99777.44;5053466;28;19927;-69
2023/10/25 06:36:27;;;;;;;;;;;;;;;8.34;100.00;99773.03;5070086;28;20326;-68
2023/10/25 06:38:53;;;;;;;;;;;;;;;8.35;100.00;99771.25;5060843;28;20238;-68
2023/10/25 06:41:19;;;;;;;;;;;;;;;8.30;100.00;99760.91;5062286;28;20268;-68
2023/10/25 06:43:45;;;;;;;;;;;;;;;8.32;100.00;99761.75;5054725;28;19970;-68
2023/10/25 06:46:13;;;;;;;;;;;;;;;8.32;100.00;99757.41;5043441;28;19924;-68
2023/10/25 06:48:39;;;;;;;;;;;;;;;8.30;100.00;99753.09;5037719;28;20240;-68
2023/10/25 06:51:05;;;;;;;;;;;;;;;8.30;100.00;99748.75;5041732;28;19929;-68
2023/10/25 06:53:30;;;;;;;;;;;;;;;8.28;100.00;99739.22;5050377;28;19913;-68
2023/10/25 06:55:56;;;;;;;;;;;;;;;8.31;100.00;99729.56;5060493;28;20312;-68
2023/10/25 06:58:21;;;;;;;;;;;;;;;8.38;100.00;99737.28;5054154;28;20275;-69
2023/10/25 07:00:47;;;;;;;;;;;;;;;8.41;100.00;99729.41;5052088;28;19929;-67
2023/10/25 07:03:13;;;;;;;;;;;;;;;8.36;100.00;99726.00;5057561;28;19943;-68
2023/10/25 07:05:39;;;;;;;;;;;;;;;8.36;100.00;99726.00;5052399;28;20376;-68
2023/10/25 07:08:05;;;;;;;;;;;;;;;8.30;100.00;99714.81;5070457;28;20218;-68
2023/10/25 07:10:31;;;;;;;;;;;;;;;8.30;100.00;99717.44;5051877;28;20019;-68
2023/10/25 07:12:56;;;;;;;;;;;;;;;8.32;100.00;99705.19;5068996;28;19924;-68
2023/10/25 07:15:24;;;;;;;;;;;;;;;8.36;100.00;99710.34;5071182;28;19916;-68
2023/10/25 07:17:49;;;;;;;;;;;;;;;8.35;100.00;99708.63;5068980;28;19943;-69
2023/10/25 07:20:15;;;;;;;;;;;;;;;8.40;100.00;99702.41;5077760;28;20325;-68
2023/10/25 07:22:40;;;;;;;;;;;;;;;8.34;100.00;99702.53;5063394;28;20517;-68
2023/10/25 07:25:06;;;;;;;;;;;;;;;8.32;100.00;99699.97;5073934;28;19924;-69
2023/10/25 07:27:31;;;;;;;;;;;;;;;8.36;100.00;99699.91;5082470;28;20346;-68
2023/10/25 07:29:56;;;;;;;;;;;;;;;8.39;100.00;99695.50;5077249;28;20313;-69
2023/10/25 07:32:22;;;;;;;;;;;;;;;8.38;100.00;99690.31;5068107;28;20318;-68
2023/10/25 07:34:47;;;;;;;;;;;;;;;8.36;100.00;99685.13;5058807;28;19923;-68
2023/10/25 07:37:12;;;;;;;;;;;;;;;8.38;100.00;99685.94;5055499;28;20455;-68
2023/10/25 07:39:39;;;;;;;;;;;;;;;8.39;100.00;99681.56;5072633;28;19943;-68
2023/10/25 07:42:05;;;;;;;;;;;;;;;8.43;100.00;99680.59;5079621;28;19928;-68
2023/10/25 07:44:30;;;;;;;;;;;;;;;8.44;100.00;99688.44;5087977;28;19994;-68
2023/10/25 07:46:55;;;;;;;;;;;;;;;8.43;100.00;99680.59;5075665;28;19927;-68
2023/10/25 07:49:21;;;;;;;;;;;;;;;8.44;100.00;99682.34;5071929;28;19925;-68
2023/10/25 07:51:46;;;;;;;;;;;;;;;8.42;100.00;99673.66;5072754;28;20738;-68
2023/10/25 07:54:11;;;;;;;;;;;;;;;8.42;100.00;99674.53;5058888;28;19995;-68
2023/10/25 07:56:37;;;;;;;;;;;;;;;8.43;100.00;99672.78;5072746;28;19994;-68
2023/10/25 07:59:02;;;;;;;;;;;;;;;8.44;100.00;99666.66;5055189;28;20019;-68
2023/10/25 08:01:27;;;;;;;;;;;;;;;8.44;100.00;99662.31;5075727;28;19917;-68
2023/10/25 08:03:53;;;;;;;;;;;;;;;8.44;100.00;99653.63;5061110;28;19980;-68
2023/10/25 08:06:18;;;;;;;;;;;;;;;8.44;100.00;99651.88;5060463;28;20502;-68
2023/10/25 08:08:44;;;;;;;;;;;;;;;8.46;100.00;99644.91;5072930;28;19920;-68
2023/10/25 08:11:11;;;;;;;;;;;;;;;8.48;100.00;99637.03;5053746;28;19966;-68
2023/10/25 08:13:38;;;;;;;;;;;;;;;8.51;100.00;99629.13;5051103;28;19920;-67
2023/10/25 08:16:04;;;;;;;;;;;;;;;8.53;100.00;99624.72;5056656;28;19925;-68
2023/10/25 08:18:30;;;;;;;;;;;;;;;8.58;100.00;99630.69;5053376;28;19921;-68
2023/10/25 08:20:56;;;;;;;;;;;;;;;8.62;100.00;99621.03;5067759;28;20376;-68
2023/10/25 08:23:21;;;;;;;;;;;;;;;8.67;100.00;99619.19;5052394;28;19955;-68
2023/10/25 08:25:47;;;;;;;;;;;;;;;8.70;100.00;99616.47;5074864;28;20364;-68
2023/10/25 08:28:12;;;;;;;;;;;;;;;8.72;100.00;99613.84;5076586;28;19916;-68
2023/10/25 08:30:37;;;;;;;;;;;;;;;8.75;100.00;99619.88;5063470;28;19932;-68
2023/10/25 08:33:03;;;;;;;;;;;;;;;8.75;100.00;99618.97;5084354;28;19916;-68
2023/10/25 08:35:28;;;;;;;;;;;;;;;8.76;100.00;99610.25;5060016;28;20389;-68
2023/10/25 08:37:53;;;;;;;;;;;;;;;8.78;100.00;99600.66;5074536;28;20047;-68
2023/10/25 08:42:57;;;;;;;;;;;;;;;8.82;100.00;99607.50;5085081;28;20467;-68
2023/10/25 08:45:22;;;;;;;;;;;;;;;8.87;100.00;99600.41;5318788;22;19927;-67
2023/10/25 08:47:49;;;;;;;;;;;;;;;8.89;100.00;99588.16;5084990;28;20370;-67
2023/10/25 08:50:20;;;;;;;;;;;;;;;8.88;100.00;99590.81;5082782;22;19924;-91
2023/10/25 08:52:50;;;;;;;;;;;;;;;8.90;100.00;99587.28;5094350;28;19924;-90
2023/10/25 08:58:41;;;;;;;;;;;;;;;8.91;100.00;99578.53;5105513;28;20045;-91
2023/10/25 09:01:09;;;;;;;;;;;;;;;8.94;100.00;99569.78;5109261;28;19986;-91
2023/10/25 09:07:05;;;;;;;;;;;;;;;8.99;100.00;99560.94;5109259;28;20072;-91
2023/10/25 09:25:37;;;;;;;;;;;;;;;9.03;100.00;99525.09;5074555;28;19923;-91
2023/10/25 09:28:08;;;;;;;;;;;;;;;9.01;100.00;99521.69;5093188;28;20364;-91
2023/10/25 09:30:33;;;;;;;;;;;;;;;9.04;100.00;99524.22;5110814;28;20279;-90
2023/10/25 09:33:06;;;;;;;;;;;;;;;8.96;100.00;99516.56;5093246;28;19916;-92
2023/10/25 09:35:42;;;;;;;;;;;;;;;8.97;100.00;99518.28;5093641;28;19955;-92
2023/10/25 09:38:34;;;;;;;;;;;;;;;8.94;100.00;99520.97;5094714;28;19924;-92
2023/10/25 09:47:18;;;;;;;;;;;;;;;8.94;100.00;99541.88;5072172;28;19975;-92
2023/10/25 09:50:18;;;;;;;;;;;;;;;8.91;100.00;99535.91;5055189;28;19963;-91
2023/10/25 09:52:49;;;;;;;;;;;;;;;8.90;100.00;99524.56;5041989;28;19913;-93
2023/10/25 09:58:18;;;;;;;;;;;;;;;8.91;100.00;99492.31;5071965;28;20400;-92
2023/10/25 10:00:57;;;;;;;;;;;;;;;8.83;100.00;99483.84;5055038;28;19916;-92
2023/10/25 10:03:57;;;;;;;;;;;;;;;;;;;;;
2023/10/25 10:09:49;;;;;;;;;;;;;;;8.66;100.00;99469.47;5052631;28;20284;-93
2023/10/25 10:12:37;;;;;;;;;;;;;;;8.64;100.00;99475.63;5072817;28;19917;-94
2023/10/25 10:15:19;;;;;;;;;;;;;;;8.65;100.00;99475.59;5073606;28;20267;-92
2023/10/25 10:17:50;;;;;;;;;;;;;;;8.60;100.00;99477.44;5033061;28;20066;-93
2023/10/25 10:20:45;;;;;;;;;;;;;;;8.59;100.00;99470.53;5015927;28;19924;-93
2023/10/25 10:23:32;;;;;;;;;;;;;;;8.60;100.00;99467.00;5015125;28;19913;-93
2023/10/25 10:26:11;;;;;;;;;;;;;;;8.58;100.00;99455.75;5016731;28;19917;-94
2023/10/25 10:28:55;;;;;;;;;;;;;;;8.58;100.00;99455.75;5034547;28;20364;-93
2023/10/25 10:31:57;;;;;;;;;;;;;;;8.59;100.00;99449.63;5035703;28;20005;-94
2023/10/25 10:37:54;;;;;;;;;;;;;;;8.66;100.00;99427.69;5052829;28;19939;-93
2023/10/25 10:40:37;;;;;;;;;;;;;;;8.61;100.00;99419.09;5034349;28;19924;-93
2023/10/25 10:43:14;;;;;;;;;;;;;;;8.61;100.00;99416.50;5035311;28;19940;-93
2023/10/25 11:01:48;;;;;;;;;;;;;;;8.62;100.00;99366.00;5039934;28;20437;-93
2023/10/25 11:10:39;;;;;;;;;;;;;;;8.71;100.00;99353.59;5051489;28;19923;-94
2023/10/25 11:19:35;;;;;;;;;;;;;;;8.65;100.00;99326.72;5001019;28;19920;-94
2023/10/25 11:22:16;;;;;;;;;;;;;;;8.75;100.00;99335.16;4992460;28;19917;-93
2023/10/25 11:24:57;;;;;;;;;;;;;;;8.74;100.00;99330.00;4976087;28;19941;-93
2023/10/25 11:27:43;;;;;;;;;;;;;;;8.78;100.00;99326.41;4983903;28;20282;-92
2023/10/25 11:30:26;;;;;;;;;;;;;;;8.80;100.00;99324.59;4992031;28;20369;-92
2023/10/25 11:33:41;;;;;;;;;;;;;;;8.80;100.00;99319.34;4995469;28;19927;-93
2023/10/25 11:45:23;;;;;;;;;;;;;;;8.91;100.00;99287.72;5013863;28;19925;-93
2023/10/25 11:51:31;;;;;;;;;;;;;;;8.98;100.00;99286.63;5002193;28;19921;-93
2023/10/25 11:56:59;;;;;;;;;;;;;;;8.96;100.00;99263.13;5025336;28;19920;-93
2023/10/25 11:59:39;;;;;;;;;;;;;;;9.00;100.00;99259.53;5025841;28;20369;-94
2023/10/25 12:02:25;;;;;;;;;;;;;;;9.03;100.00;99261.19;5053573;28;19913;-94
2023/10/25 12:08:04;;;;;;;;;;;;;;;9.11;100.00;99251.38;5094297;28;19965;-92
2023/10/25 12:10:47;;;;;;;;;;;;;;;9.14;100.00;99251.28;5092951;28;20360;-94
2023/10/25 12:13:23;;;;;;;;;;;;;;;9.13;100.00;99235.63;5095899;28;20007;-92
2023/10/25 12:19:18;;;;;;;;;;;;;;;9.18;100.00;99225.91;5094083;28;20370;-92
2023/10/25 12:21:55;;;;;;;;;;;;;;;9.16;100.00;99225.94;5092812;28;19912;-94
2023/10/25 12:24:46;;;;;;;;;;;;;;;9.21;100.00;99223.19;5091123;28;19935;-93
2023/10/25 12:27:18;;;;;;;;;;;;;;;9.24;100.00;99223.09;5093332;28;19923;-93
2023/10/25 12:29:51;;;;;;;;;;;;;;;9.23;100.00;99221.38;5109006;28;19923;-93
2023/10/25 12:32:21;;;;;;;;;;;;;;;9.19;100.00;99217.13;5076331;28;19959;-93
2023/10/25 12:34:52;;;;;;;;;;;;;;;9.22;100.00;99211.81;5097071;28;19911;-93
2023/10/25 12:37:18;;;;;;;;;;;;;;;9.22;100.00;99206.59;5079715;28;19916;-93
2023/10/25 12:39:54;;;;;;;;;;;;;;;9.25;100.00;99198.66;5081145;28;20362;-93
2023/10/25 12:42:28;;;;;;;;;;;;;;;9.29;100.00;99202.03;5097652;28;19930;-93
2023/10/25 12:44:54;;;;;;;;;;;;;;;9.34;100.00;99195.75;5096952;28;19923;-93
2023/10/25 12:47:19;;;;;;;;;;;;;;;9.28;100.00;99193.34;5076627;28;19913;-92
2023/10/25 12:49:49;;;;;;;;;;;;;;;9.29;100.00;99189.78;5076974;28;19966;-93
2023/10/25 12:52:15;;;;;;;;;;;;;;;9.33;100.00;99190.56;5072854;28;19924;-93
2023/10/25 12:54:41;;;;;;;;;;;;;;;9.33;100.00;99188.78;5079062;28;20003;-94
2023/10/25 12:57:06;;;;;;;;;;;;;;;9.36;100.00;99186.06;5095974;28;19912;-94
2023/10/25 12:59:36;;;;;;;;;;;;;;;9.34;100.00;99173.97;5096925;28;20264;-93
2023/10/25 13:02:02;;;;;;;;;;;;;;;9.36;100.00;99182.63;5081356;28;20356;-93
2023/10/25 13:04:30;;;;;;;;;;;;;;;9.39;100.00;99176.44;5096760;28;20003;-93
2023/10/25 13:06:58;;;;;;;;;;;;;;;9.37;100.00;99168.66;5072799;28;20031;-93
2023/10/25 13:09:23;;;;;;;;;;;;;;;9.44;100.00;99170.16;5109166;28;20370;-93
2023/10/25 13:11:50;;;;;;;;;;;;;;;9.42;100.00;99163.25;5095664;28;19956;-93
2023/10/25 13:14:21;;;;;;;;;;;;;;;9.46;100.00;99167.47;5095062;28;19912;-92
2023/10/25 13:16:52;;;;;;;;;;;;;;;9.48;100.00;99157.81;5077845;28;20049;-93
2023/10/25 13:19:49;;;;;;;;;;;;;;;9.49;100.00;99156.91;5094211;28;19965;-93
2023/10/25 13:22:15;;;;;;;;;;;;;;;9.52;100.00;99146.34;5090706;28;20429;-94
2023/10/25 13:24:40;;;;;;;;;;;;;;;9.51;100.00;99150.72;5100699;28;19947;-92
2023/10/25 13:27:06;;;;;;;;;;;;;;;9.51;100.00;99149.84;5094720;28;19959;-93
2023/10/25 13:29:45;;;;;;;;;;;;;;;9.52;100.00;99147.22;5094450;28;19912;-92
2023/10/25 13:32:32;;;;;;;;;;;;;;;9.54;100.00;99144.53;5077228;28;19927;-93
2023/10/25 13:35:09;;;;;;;;;;;;;;;9.57;100.00;99143.56;5079378;28;20478;-93
2023/10/25 13:37:35;;;;;;;;;;;;;;;9.55;100.00;99141.00;5093983;28;19966;-93
2023/10/25 13:40:04;;;;;;;;;;;;;;;9.55;100.00;99135.78;5093808;28;19916;-93
2023/10/25 13:42:29;;;;;;;;;;;;;;;9.56;100.00;99145.34;5093940;28;19912;-93
2023/10/25 13:44:58;;;;;;;;;;;;;;;9.58;100.00;99135.66;5092861;28;19977;-92
2023/10/25 13:47:29;;;;;;;;;;;;;;;9.54;100.00;99140.16;5073145;28;19969;-93
2023/10/25 13:49:54;;;;;;;;;;;;;;;9.53;100.00;99138.44;5068250;28;19959;-93
2023/10/25 13:52:22;;;;;;;;;;;;;;;9.53;100.00;99132.38;5094086;28;19920;-93
2023/10/25 13:55:02;;;;;;;;;;;;;;;9.51;100.00;99128.94;5093973;28;20060;-93
2023/10/25 13:57:30;;;;;;;;;;;;;;;9.50;100.00;99128.09;5073783;28;19913;-93
2023/10/25 13:59:57;;;;;;;;;;;;;;;9.51;100.00;99123.72;5077348;28;19984;-92
2023/10/25 14:05:20;;;;;;;;;;;;;;;9.51;100.00;99123.72;5094576;28;19924;-92
2023/10/25 14:07:57;;;;;;;;;;;;;;;9.51;100.00;99123.72;5094497;28;19961;-93
2023/10/25 14:10:22;;;;;;;;;;;;;;;9.53;100.00;99117.53;5104561;28;20027;-92
2023/10/25 14:12:52;;;;;;;;;;;;;;;9.52;100.00;99112.34;5073047;28;19966;-93
2023/10/25 14:15:30;;;;;;;;;;;;;;;9.51;100.00;99118.47;5078989;28;20064;-92
2023/10/25 14:18:11;;;;;;;;;;;;;;;9.51;100.00;99110.63;5048214;28;19924;-90
2023/10/25 14:20:41;;;;;;;;;;;;;;;9.53;100.00;99108.84;5052648;28;20005;-93
2023/10/25 14:23:06;;;;;;;;;;;;;;;9.54;100.00;99111.41;5034808;28;19999;-93
2023/10/25 14:28:36;;;;;;;;;;;;;;;9.54;100.00;99102.72;5051885;28;19975;-92
2023/10/25 14:34:04;;;;;;;;;;;;;;;9.51;100.00;99100.16;5052475;28;19986;-92